Stations météo

réclame
Mon MeteoGroup
Aonach Mor, Grande-Bretagne (3041): Température de l'air & dewpoint: 06.07.2020 04:00:00 - 12.07.2020 04:00:00 (BST)Aonach Mor, Grande-Bretagne (3041): Vitesse du vent & gusts: 06.07.2020 04:00:00 - 12.07.2020 04:00:00 (BST)Aonach Mor, Grande-Bretagne (3041): Direction du vent: 06.07.2020 04:00:00 - 12.07.2020 04:00:00 (BST)
Date & Time tt [°C] td [°C] ff [km/h] ff [knt] fx [km/h] fx [knt] dd
12.07.2020 04:00:00 2,4 2,4 35 19 61 33 SW
12.07.2020 03:00:00 2,9 2,9 29 16 46 25 SW
12.07.2020 02:00:00 2,8 2,8 34 18 55 30 WSW
12.07.2020 01:00:00 2,7 2,7 34 18 57 31 SW
12.07.2020 00:00:00 3,4 3,4 29 16 54 29 SW
11.07.2020 23:00:00 3,2 3,2 35 19 50 27 SW
11.07.2020 22:00:00 3,2 3,2 41 22 54 29 SW
11.07.2020 21:00:00 3,4 3,4 34 18 50 27 WSW
11.07.2020 20:00:00 3,8 3,8 37 20 48 26 SW
11.07.2020 19:00:00 3,8 3,8 29 16 52 28 SW
11.07.2020 18:00:00 4,4 4,4 29 16 50 27 SW
11.07.2020 17:00:00 3,9 3,3 39 21 50 27 WSW
11.07.2020 16:00:00 4,4 4,3 39 21 54 29 WSW
11.07.2020 15:00:00 4,7 4,5 29 16 50 27 WSW
11.07.2020 14:00:00 4,4 3,7 34 18 52 28 SW
11.07.2020 13:00:00 4,4 3,9 34 18 46 25 SW
11.07.2020 12:00:00 4,4 3,9 28 15 48 26 WSW
11.07.2020 11:00:00 3,8 3,3 34 18 46 25 SW
11.07.2020 10:00:00 3,7 3,6 28 15 - - WSW
11.07.2020 09:00:00 3,4 3,4 28 15 - - WSW
11.07.2020 08:00:00 2,8 2,8 26 14 - - WSW
11.07.2020 07:00:00 2,8 2,8 21 11 - - WSW
11.07.2020 06:00:00 2,7 2,7 28 15 - - WSW
11.07.2020 05:00:00 2,5 2,5 31 17 - - SW
11.07.2020 04:00:00 2,5 2,5 31 17 - - WSW
11.07.2020 03:00:00 2,3 2,3 29 16 - - WSW
11.07.2020 02:00:00 2,5 2,5 34 18 46 25 WSW
11.07.2020 01:00:00 2,5 2,5 28 15 50 27 WSW
11.07.2020 00:00:00 3,0 3,0 26 14 - - WSW
10.07.2020 23:00:00 3,7 3,7 21 11 - - WSW
10.07.2020 22:00:00 3,9 3,9 18 10 - - WNW
10.07.2020 21:00:00 4,0 4,0 15 8 - - W
10.07.2020 20:00:00 4,0 4,0 15 8 - - W
10.07.2020 19:00:00 3,6 3,6 21 11 - - WSW
10.07.2020 18:00:00 3,6 3,6 22 12 - - WSW
10.07.2020 17:00:00 3,8 3,8 21 11 - - WSW
10.07.2020 16:00:00 3,7 3,7 16 9 - - W
10.07.2020 15:00:00 3,2 2,8 21 11 - - WNW
10.07.2020 14:00:00 4,1 3,6 18 10 - - W
10.07.2020 13:00:00 4,3 3,3 22 12 - - WSW
10.07.2020 12:00:00 3,6 2,9 18 10 - - WSW
10.07.2020 11:00:00 3,0 2,4 22 12 - - WSW
10.07.2020 10:00:00 3,0 2,1 13 7 - - WSW
10.07.2020 09:00:00 2,3 1,5 13 7 - - WSW
10.07.2020 08:00:00 1,9 1,4 11 6 - - WNW
10.07.2020 07:00:00 2,1 2,1 15 8 - - WNW
10.07.2020 06:00:00 2,1 2,1 13 7 - - NW
10.07.2020 05:00:00 2,2 2,2 15 8 - - W
10.07.2020 04:00:00 2,6 2,6 13 7 - - NNW
10.07.2020 03:00:00 2,7 2,7 13 7 - - NNW
10.07.2020 02:00:00 2,8 2,8 15 8 - - N
10.07.2020 01:00:00 2,8 2,8 15 8 - - N
10.07.2020 00:00:00 3,0 3,0 9 5 - - N
09.07.2020 23:00:00 3,2 3,2 4 2 - - NW
09.07.2020 22:00:00 3,8 3,8 9 5 - - NW
09.07.2020 21:00:00 4,4 4,3 9 5 - - NW
09.07.2020 20:00:00 4,7 4,6 9 5 - - WNW
09.07.2020 19:00:00 5,2 4,4 11 6 - - W
09.07.2020 18:00:00 5,8 3,2 9 5 - - W
09.07.2020 17:00:00 5,7 2,4 13 7 - - WSW
09.07.2020 16:00:00 6,2 2,8 11 6 - - WSW
09.07.2020 15:00:00 6,4 2,2 13 7 - - W
09.07.2020 14:00:00 6,1 1,8 11 6 - - WSW
09.07.2020 13:00:00 5,8 1,6 8 4 - - WSW
09.07.2020 12:00:00 5,9 0,6 11 6 - - SW
09.07.2020 11:00:00 4,9 -0,5 9 5 - - WSW
09.07.2020 10:00:00 4,6 2,6 5 3 - - WSW
09.07.2020 09:00:00 4,7 1,1 4 2 - - WSW
09.07.2020 08:00:00 4,9 0,1 4 2 - - WNW
09.07.2020 07:00:00 5,0 -4,0 2 1 - - SE
09.07.2020 06:00:00 4,2 4,2 2 1 - - N
09.07.2020 05:00:00 4,7 4,6 5 3 - - E
09.07.2020 04:00:00 4,8 4,6 5 3 - - E
09.07.2020 03:00:00 4,8 4,6 5 3 - - NNE
09.07.2020 02:00:00 4,7 4,3 2 1 - - NE
09.07.2020 01:00:00 5,0 4,7 5 3 - - ENE
09.07.2020 00:00:00 5,0 4,4 2 1 - - N
08.07.2020 23:00:00 5,0 4,6 5 3 - - E
08.07.2020 22:00:00 5,3 4,5 4 2 - - NW
08.07.2020 21:00:00 5,4 4,5 8 4 - - WSW
08.07.2020 20:00:00 5,8 4,9 16 9 - - SSW
08.07.2020 19:00:00 5,9 3,9 11 6 - - SSW
08.07.2020 18:00:00 6,5 0,5 8 4 - - SSW
08.07.2020 17:00:00 6,3 3,0 15 8 - - S
08.07.2020 16:00:00 6,1 3,0 15 8 - - SSW
08.07.2020 15:00:00 5,8 1,6 8 4 - - SW
08.07.2020 14:00:00 6,2 -0,1 8 4 - - W
08.07.2020 13:00:00 5,4 0,9 8 4 - - SSW
08.07.2020 12:00:00 4,7 2,1 5 3 - - W
08.07.2020 11:00:00 4,6 0,0 5 3 - - W
08.07.2020 10:00:00 4,1 1,6 9 5 - - SSW
08.07.2020 09:00:00 4,0 -1,5 4 2 - - SSW
08.07.2020 08:00:00 3,7 1,0 5 3 - - S
08.07.2020 07:00:00 3,6 -1,0 2 1 - - SSE
08.07.2020 06:00:00 3,5 3,5 8 4 - - E
08.07.2020 05:00:00 3,3 3,3 2 1 - - NNW
08.07.2020 04:00:00 3,3 3,1 2 1 - - NW
08.07.2020 03:00:00 3,6 3,5 8 4 - - E
08.07.2020 02:00:00 3,8 3,6 5 3 - - ESE
08.07.2020 01:00:00 3,8 3,8 11 6 - - E
08.07.2020 00:00:00 3,8 3,8 11 6 - - ENE
07.07.2020 23:00:00 3,9 3,9 13 7 - - ENE
07.07.2020 22:00:00 4,1 4,1 15 8 - - NE
07.07.2020 21:00:00 4,5 4,2 13 7 - - NNE
07.07.2020 20:00:00 4,8 3,0 9 5 - - NNW
07.07.2020 19:00:00 4,9 1,5 5 3 - - N
07.07.2020 18:00:00 4,2 2,1 4 2 - - NW
07.07.2020 17:00:00 4,5 3,8 9 5 - - W
07.07.2020 16:00:00 5,2 2,9 11 6 - - WNW
07.07.2020 15:00:00 4,6 -0,3 15 8 - - WSW
07.07.2020 14:00:00 4,4 -0,1 11 6 - - WSW
07.07.2020 13:00:00 3,9 0,9 9 5 - - SW
07.07.2020 12:00:00 3,5 2,4 11 6 - - W
07.07.2020 11:00:00 3,3 3,0 11 6 - - W
07.07.2020 10:00:00 2,9 2,9 16 9 - - WSW
07.07.2020 09:00:00 2,8 2,8 15 8 - - WSW
07.07.2020 08:00:00 2,8 2,8 15 8 - - WSW
07.07.2020 07:00:00 2,5 2,5 24 13 - - WSW
07.07.2020 06:00:00 2,1 2,1 21 11 - - WSW
07.07.2020 05:00:00 2,4 2,4 22 12 50 27 WSW
07.07.2020 04:00:00 2,5 2,5 29 16 48 26 WSW
07.07.2020 03:00:00 2,7 2,7 31 17 46 25 WSW
07.07.2020 02:00:00 2,9 2,9 31 17 48 26 WSW
07.07.2020 01:00:00 3,2 3,2 37 20 52 28 WSW
07.07.2020 00:00:00 3,0 3,0 29 16 50 27 WSW
06.07.2020 23:00:00 3,0 3,0 28 15 67 36 WSW
06.07.2020 22:00:00 3,1 3,1 34 18 55 30 WSW
06.07.2020 21:00:00 3,0 3,0 35 19 57 31 WSW
06.07.2020 20:00:00 2,7 2,7 39 21 52 28 WSW
06.07.2020 19:00:00 2,5 2,5 29 16 52 28 WSW
06.07.2020 18:00:00 2,7 2,7 35 19 52 28 WSW
06.07.2020 17:00:00 2,7 2,3 35 19 52 28 SW
06.07.2020 16:00:00 3,2 3,2 24 13 48 26 WSW
06.07.2020 15:00:00 3,3 2,7 21 11 - - WSW
06.07.2020 14:00:00 3,4 1,6 28 15 - - WSW
06.07.2020 13:00:00 3,0 1,3 22 12 - - WSW
06.07.2020 12:00:00 2,6 2,1 22 12 - - WSW
06.07.2020 11:00:00 2,7 0,6 24 13 - - WNW
06.07.2020 10:00:00 2,0 2,0 21 11 - - WNW
06.07.2020 09:00:00 2,3 2,3 22 12 - - NW
06.07.2020 08:00:00 2,6 2,6 22 12 - - WNW
06.07.2020 07:00:00 2,6 2,6 22 12 - - WNW
06.07.2020 06:00:00 2,8 2,8 29 16 - - NW
06.07.2020 05:00:00 3,4 3,4 24 13 - - NW
06.07.2020 04:00:00 3,3 3,3 21 11 - - WNW

tt = Température de l'air
td = dewpoint
ff = Vitesse du vent
fx = gusts
dd = Direction du vent

stations d'obs. à proximité